ADDS METAR Data INFO
IDs: Format: Raw Decoded Include TAF

Data at: 0753 UTC 17 Oct 2017

KSBP 170656Z 00000KT 10SM CLR 16/01 A3006 RMK AO2 SLP177 T01610011
KSBP 170556Z 13004KT 10SM CLR 17/01 A3007 RMK AO2 SLP179 T01670011 10272 20161 51015
KSBP 170456Z 04004KT 10SM CLR 18/02 A3006 RMK AO2 SLP178 T01780022
KSBP 170356Z 00000KT 10SM CLR 19/01 A3005 RMK AO2 SLP175 T01890011
KSBP 170256Z 00000KT 10SM CLR 22/00 A3003 RMK AO2 SLP166 T02170000 53003
KSBP 170156Z 31006KT 10SM CLR 23/00 A3002 RMK AO2 SLP165 T02280000
KSBP 170056Z 32009KT 10SM CLR 26/02 A3001 RMK AO2 SLP161 T02560017
KSBP 162356Z 31013KT 10SM CLR 27/02 A3002 RMK AO2 SLP162 T02720022 10339 20272 56007
KSBP 162256Z 32015KT 10SM CLR 29/04 A3003 RMK AO2 SLP165 T02940044
KSBP 162156Z 31013KT 10SM CLR 31/06 A3002 RMK AO2 SLP164 T03060056
KSBP 162056Z 31013KT 10SM CLR 32/07 A3004 RMK AO2 SLP168 T03220067 58020
KSBP 161956Z 23007KT 10SM CLR 34/11 A3006 RMK AO2 SLP174 T03390106
KSBP 161856Z 00000KT 10SM CLR 33/09 A3008 RMK AO2 SLP181 T03280089
KSBP 161756Z 00000KT 10SM SCT140 28/03 A3010 RMK AO2 SLP188 T02830033 10283 20100 50001
KSBP 161721Z 00000KT 10SM SCT140 24/01 A3010 RMK AO2 T02440011
KSBP 161656Z 00000KT 10SM CLR 22/01 A3011 RMK AO2 SLP193 T02220011
KSBP 161556Z 00000KT 10SM CLR 17/01 A3010 RMK AO2 SLP193 T01720011
KSBP 161456Z 00000KT 10SM CLR 11/01 A3009 RMK AO2 SLP188 T01110006 51009
KSBP 161356Z 00000KT 10SM CLR 11/00 A3008 RMK AO2 SLP186 T01060000
KSBP 161256Z 00000KT 10SM CLR 11/00 A3008 RMK AO2 SLP183 T01110000
KSBP 161156Z AUTO 00000KT 10SM CLR 11/00 A3006 RMK AO2 SLP178 T01110000 10156 20106 56006
KSBP 161056Z AUTO 00000KT 10SM CLR 11/00 A3006 RMK AO2 SLP178 T01110000
KSBP 160956Z AUTO 00000KT 10SM CLR 12/00 A3008 RMK AO2 SLP183 T01220000
KSBP 160856Z AUTO 12004KT 10SM CLR 13/00 A3008 RMK AO2 SLP184 T01280000 55005
KSBP 160756Z AUTO 00000KT 10SM CLR 13/00 A3008 RMK AO2 SLP183 T01330000 403390100
KSBP 160656Z AUTO 13003KT 10SM CLR 14/00 A3009 RMK AO2 SLP185 T01440000
KSBP 160556Z AUTO 00000KT 10SM CLR 16/00 A3010 RMK AO2 SLP189 T01560000 10283 20150 51009
KSBP 160456Z AUTO 11005KT 10SM CLR 16/01 A3010 RMK AO2 SLP190 T01610006
KSBP 160356Z AUTO 12003KT 10SM CLR 18/01 A3008 RMK AO2 SLP185 T01830006
KSBP 160256Z 34004KT 10SM CLR 21/00 A3007 RMK AO2 SLP181 T02110000 53010
KSBP 160156Z 31007KT 10SM CLR 22/00 A3006 RMK AO2 SLP177 T02220000
KSBP 160056Z 32009KT 10SM CLR 26/01 A3005 RMK AO2 SLP174 T02560011
KSBP 152356Z 32011KT 10SM CLR 28/06 A3004 RMK AO2 SLP170 T02830061 10339 20272 55000
KSBP 152256Z 31012KT 10SM CLR 29/07 A3004 RMK AO2 SLP169 T02940067
KSBP 152156Z 32010KT 10SM CLR 32/09 A3003 RMK AO2 SLP168 T03220094
KSBP 152056Z 00000KT 10SM CLR 32/08 A3004 RMK AO2 SLP170 T03170083 58012
KSBP 151956Z VRB04KT 10SM CLR 33/10 A3006 RMK AO2 SLP174 T03330100